Country
Station

 

Weather  for  Buenaventura  -  Colombia    Colombia

  
29 °C (84 °F)
    
 
 

Current METAR for Buenaventura is :

SKBU 272200Z 27007KT 7000 VCSH OVC015TCU 29/24 A2967

 

This is a report for Buenaventura - Colombia.
 
The report was made 523 hours and 21 minutes ago, at 22:00 UTC .
The wind was blowing at a speed of 3.6 meters per second (8.1 miles per hour) from west (270°).
 
The temperature was 29 °C (84 °F), with a dew-point at 24 °C (75 °F).
The temperature felt like 33 °C (92 °F).
 
The atmospheric pressure was 1005 hPa (29.67 inHg).
The relative humidity was 74.5%.
 
The sky was overcast from a height of 457 meter (1500 feet)
 
The overall visibility was 7.0 kilometers (4.3 miles).
 
Currently showers of in the vicinity.

 
 
 
 

Country :   A   B   C   D   E   F   G   H   I   J   K   L   M   N   O   P   Q   R   S   T   U   V   W   Y   Z

 

Site Info  |  Disclaimer  |  Credits  |  Privacy
Contact us  |  Add to favorites
© 2013-2019 METARs - All rights reserved